Time;durP1;ratioP1;P1;durP2;ratioP2;P2;SDS_P1;SDS_P2;PMS_P1;PMS_P2;Temp;Humidity;BMP_temperature;BMP_pressure;BME280_temperature;BME280_humidity;BME280_pressure;Samples;Min_cycle;Max_cycle;Signal;HPM_P1;HPM_P2
2022/06/21 00:00:23;;;;;;;2.43;0.90;;;15.40;71.30;;;;;;5050334;28;20051;-71
2022/06/21 00:02:56;;;;;;;2.08;1.00;;;15.40;71.30;;;;;;5056584;28;20044;-69
2022/06/21 00:05:27;;;;;;;1.65;0.90;;;15.20;71.50;;;;;;5055872;28;20610;-73
2022/06/21 00:07:57;;;;;;;3.70;0.82;;;15.20;71.50;;;;;;5057467;28;20044;-71
2022/06/21 00:10:24;;;;;;;3.25;1.08;;;15.20;71.60;;;;;;5058242;28;20044;-68
2022/06/21 00:12:51;;;;;;;2.63;1.00;;;15.10;71.50;;;;;;5056080;28;20436;-72
2022/06/21 00:15:18;;;;;;;2.83;1.30;;;15.10;71.60;;;;;;5054691;28;20404;-71
2022/06/21 00:17:48;;;;;;;1.83;0.90;;;15.10;71.60;;;;;;5058492;28;20523;-68
2022/06/21 00:20:20;;;;;;;2.85;1.13;;;15.10;71.60;;;;;;5056465;28;20505;-71
2022/06/21 00:22:48;;;;;;;5.30;2.55;;;15.00;71.60;;;;;;5043960;28;20527;-72
2022/06/21 00:25:20;;;;;;;3.60;1.38;;;15.00;71.60;;;;;;5050006;28;20076;-72
2022/06/21 00:27:47;;;;;;;2.13;1.10;;;15.00;71.60;;;;;;5046899;28;20053;-71
2022/06/21 00:30:16;;;;;;;1.63;0.90;;;15.00;71.70;;;;;;5051443;28;20053;-71
2022/06/21 00:32:43;;;;;;;1.73;1.00;;;14.90;71.60;;;;;;5040287;28;20439;-71
2022/06/21 00:35:14;;;;;;;1.75;1.10;;;14.90;71.70;;;;;;5047176;28;20506;-72
2022/06/21 00:37:42;;;;;;;3.28;1.13;;;14.90;71.80;;;;;;5048110;28;20072;-74
2022/06/21 00:40:21;;;;;;;2.30;1.00;;;14.80;71.90;;;;;;5049263;28;20037;-71
2022/06/21 00:42:54;;;;;;;1.98;1.20;;;14.70;71.80;;;;;;5049314;28;20556;-71
2022/06/21 00:45:31;;;;;;;2.38;1.00;;;14.70;71.70;;;;;;5049018;28;20040;-72
2022/06/21 00:48:02;;;;;;;2.50;1.00;;;14.70;71.70;;;;;;5048442;28;20394;-71
2022/06/21 00:50:38;;;;;;;3.42;1.00;;;14.70;71.80;;;;;;5046253;28;20057;-73
2022/06/21 00:53:12;;;;;;;2.25;1.15;;;14.60;71.80;;;;;;5052117;28;20060;-70
2022/06/21 00:55:48;;;;;;;2.08;1.10;;;14.60;71.90;;;;;;5041175;28;20083;-70
2022/06/21 00:58:16;;;;;;;1.48;0.90;;;14.60;72.00;;;;;;5048465;28;20040;-74
2022/06/21 01:00:55;;;;;;;2.17;0.75;;;14.60;72.00;;;;;;5044026;28;20128;-69
2022/06/21 01:03:34;;;;;;;1.63;1.00;;;14.50;72.10;;;;;;5053127;28;20036;-71
2022/06/21 01:06:04;;;;;;;2.77;1.37;;;14.50;71.90;;;;;;5057381;28;20419;-68
2022/06/21 01:08:36;;;;;;;2.83;1.50;;;14.50;71.90;;;;;;5059429;28;20119;-73
2022/06/21 01:11:10;;;;;;;2.28;1.10;;;14.50;72.00;;;;;;5054144;28;20116;-73
2022/06/21 01:13:41;;;;;;;2.35;1.23;;;14.50;72.00;;;;;;5045586;28;20055;-71
2022/06/21 01:16:09;;;;;;;2.85;1.40;;;14.40;72.00;;;;;;5048752;28;20460;-72
2022/06/21 01:18:37;;;;;;;1.80;1.08;;;14.40;72.00;;;;;;5051294;28;20052;-71
2022/06/21 01:21:05;;;;;;;2.00;1.10;;;14.40;71.80;;;;;;5049137;28;20048;-71
2022/06/21 01:23:49;;;;;;;3.08;1.35;;;14.40;71.90;;;;;;5048698;28;20068;-72
2022/06/21 01:26:41;;;;;;;1.70;0.95;;;14.30;72.10;;;;;;5054816;28;20041;-69
2022/06/21 01:29:12;;;;;;;4.60;1.38;;;14.30;72.10;;;;;;5055480;28;20064;-69
2022/06/21 01:31:40;;;;;;;2.92;1.10;;;14.30;72.10;;;;;;5056318;28;20057;-70
2022/06/21 01:34:10;;;;;;;2.67;1.38;;;14.20;72.20;;;;;;5057677;28;20044;-73
2022/06/21 01:36:37;;;;;;;2.00;1.23;;;14.20;72.20;;;;;;5072336;28;20048;-70
2022/06/21 01:39:08;;;;;;;2.80;1.15;;;14.20;72.20;;;;;;5059783;28;20055;-69
2022/06/21 01:41:41;;;;;;;3.95;1.52;;;14.20;72.20;;;;;;5055434;28;20044;-67
2022/06/21 01:44:14;;;;;;;2.95;1.20;;;14.20;72.10;;;;;;5060079;28;20045;-70
2022/06/21 01:46:41;;;;;;;2.90;1.08;;;14.10;72.10;;;;;;5046743;28;20143;-72
2022/06/21 01:49:11;;;;;;;3.42;1.95;;;14.10;72.40;;;;;;5052538;28;20129;-67
2022/06/21 01:51:43;;;;;;;3.28;1.30;;;14.10;72.30;;;;;;5045659;28;20056;-68
2022/06/21 01:54:15;;;;;;;3.05;1.80;;;14.00;72.30;;;;;;5050037;28;20052;-73
2022/06/21 01:56:44;;;;;;;2.00;1.10;;;14.10;72.10;;;;;;5052580;28;20147;-70
2022/06/21 01:59:14;;;;;;;2.45;1.10;;;14.00;72.10;;;;;;5052378;28;20470;-68
2022/06/21 02:01:47;;;;;;;4.03;1.15;;;14.00;72.30;;;;;;5040658;28;20050;-72
2022/06/21 02:04:18;;;;;;;1.77;0.95;;;13.90;72.10;;;;;;5048144;28;20048;-71
2022/06/21 02:06:48;;;;;;;2.45;1.38;;;14.00;72.10;;;;;;5048738;28;20500;-71
2022/06/21 02:09:20;;;;;;;2.70;1.50;;;13.90;72.10;;;;;;5046351;28;20906;-67
2022/06/21 02:11:52;;;;;;;2.15;1.05;;;13.90;72.20;;;;;;5047487;28;20056;-74
2022/06/21 02:14:30;;;;;;;1.83;1.05;;;13.90;72.20;;;;;;5047469;28;20051;-70
2022/06/21 02:17:07;;;;;;;2.67;1.40;;;13.90;72.20;;;;;;5042911;28;20548;-76
2022/06/21 02:19:39;;;;;;;2.03;1.10;;;13.90;72.20;;;;;;5048593;28;20445;-71
2022/06/21 02:22:10;;;;;;;2.50;1.13;;;13.90;72.10;;;;;;5056552;28;20048;-69
2022/06/21 02:24:37;;;;;;;2.35;1.08;;;13.90;72.10;;;;;;5056579;28;20056;-70
2022/06/21 02:27:06;;;;;;;2.47;1.38;;;13.90;72.10;;;;;;5054844;28;20045;-70
2022/06/21 02:29:34;;;;;;;2.90;1.42;;;13.80;72.30;;;;;;5056254;28;20045;-67
2022/06/21 02:32:05;;;;;;;2.20;1.13;;;13.80;72.40;;;;;;5056525;28;20049;-70
2022/06/21 02:34:33;;;;;;;;;;;13.80;72.20;;;;;;5057874;28;20048;-75
2022/06/21 02:37:02;;;;;;;4.30;1.23;;;13.80;72.10;;;;;;5054508;28;19924;-72
2022/06/21 02:39:33;;;;;;;2.15;1.40;;;13.80;72.10;;;;;;5056365;28;20044;-71
2022/06/21 02:42:03;;;;;;;4.07;1.35;;;13.90;72.00;;;;;;5054701;28;20051;-71
2022/06/21 02:44:38;;;;;;;3.65;1.30;;;13.80;72.10;;;;;;5037831;28;20048;-70
2022/06/21 02:47:10;;;;;;;2.63;1.40;;;13.80;71.90;;;;;;5046505;28;20063;-75
2022/06/21 02:49:40;;;;;;;5.35;1.83;;;13.70;72.20;;;;;;5054322;28;20071;-70
2022/06/21 02:52:13;;;;;;;3.88;1.20;;;13.60;72.20;;;;;;5058090;28;20116;-74
2022/06/21 02:54:46;;;;;;;2.67;1.10;;;13.60;72.20;;;;;;5056237;28;20055;-71
2022/06/21 02:57:17;;;;;;;3.53;1.17;;;13.60;72.20;;;;;;5054305;28;20540;-75
2022/06/21 02:59:47;;;;;;;2.85;1.42;;;13.50;72.30;;;;;;5057153;28;20049;-70
2022/06/21 03:02:17;;;;;;;2.92;1.20;;;13.50;72.40;;;;;;5048284;28;20511;-72
2022/06/21 03:04:47;;;;;;;;;;;13.60;72.30;;;;;;5057116;28;20135;-68
2022/06/21 03:07:17;;;;;;;1.90;1.30;;;13.60;72.30;;;;;;5056378;28;19921;-72
2022/06/21 03:09:45;;;;;;;2.63;1.52;;;13.60;72.40;;;;;;5054998;28;20549;-73
2022/06/21 03:12:18;;;;;;;4.13;1.30;;;13.60;72.50;;;;;;5054514;28;20593;-74
2022/06/21 03:14:48;;;;;;;2.78;1.40;;;13.50;72.60;;;;;;5058216;28;20052;-74
2022/06/21 03:17:18;;;;;;;3.55;1.77;;;13.40;72.70;;;;;;5058325;28;20135;-71
2022/06/21 03:19:49;;;;;;;2.53;1.50;;;13.50;72.60;;;;;;5060409;28;20048;-71
2022/06/21 03:22:18;;;;;;;4.43;1.63;;;13.50;72.40;;;;;;5056001;28;20049;-71
2022/06/21 03:24:47;;;;;;;2.65;1.40;;;13.50;72.30;;;;;;5059571;28;20380;-70
2022/06/21 03:27:22;;;;;;;3.50;1.73;;;13.50;72.50;;;;;;5062702;28;20405;-75
2022/06/21 03:29:50;;;;;;;3.47;1.48;;;13.40;72.70;;;;;;5048109;28;20063;-75
2022/06/21 03:32:18;;;;;;;2.88;1.52;;;13.50;73.00;;;;;;5053966;28;20067;-70
2022/06/21 03:34:46;;;;;;;4.75;1.80;;;13.40;73.10;;;;;;5049337;28;20041;-76
2022/06/21 03:37:13;;;;;;;3.40;1.80;;;13.50;73.30;;;;;;5054526;28;20048;-67
2022/06/21 03:42:29;;;;;;;5.15;2.00;;;13.40;73.10;;;;;;5051481;28;20055;-72
2022/06/21 03:45:02;;;;;;;4.15;1.50;;;13.40;73.20;;;;;;5051622;28;20052;-69
2022/06/21 03:47:33;;;;;;;3.70;1.63;;;13.40;73.20;;;;;;5052102;28;20059;-74
2022/06/21 03:50:04;;;;;;;4.50;1.30;;;13.50;73.10;;;;;;5051909;28;20045;-68
2022/06/21 03:52:45;;;;;;;2.60;1.58;;;13.50;73.10;;;;;;5048142;28;20956;-77
2022/06/21 03:55:22;;;;;;;4.40;1.58;;;13.50;73.10;;;;;;5051016;28;20489;-68
2022/06/21 03:57:57;;;;;;;4.75;1.75;;;13.50;73.20;;;;;;5049709;28;20132;-72
2022/06/21 04:00:28;;;;;;;4.15;1.65;;;13.50;73.50;;;;;;5047616;28;20040;-78
2022/06/21 04:03:02;;;;;;;2.85;1.63;;;13.40;73.50;;;;;;5049544;28;20053;-69
2022/06/21 04:05:34;;;;;;;4.68;1.45;;;13.40;73.50;;;;;;5049167;28;20522;-70
2022/06/21 04:08:08;;;;;;;3.10;1.55;;;13.50;73.70;;;;;;5048310;28;20055;-69
2022/06/21 04:10:43;;;;;;;4.60;1.65;;;13.50;73.60;;;;;;5049448;28;20055;-72
2022/06/21 04:13:18;;;;;;;3.65;1.30;;;13.60;73.40;;;;;;5046559;28;20137;-70
2022/06/21 04:15:50;;;;;;;3.88;1.50;;;13.60;73.30;;;;;;5042264;28;20041;-68
2022/06/21 04:18:24;;;;;;;3.70;1.90;;;13.60;73.40;;;;;;5059238;28;20685;-74
2022/06/21 04:21:03;;;;;;;4.82;2.72;;;13.60;73.50;;;;;;5061234;28;20408;-74
2022/06/21 04:23:36;;;;;;;4.53;1.90;;;13.60;73.70;;;;;;5059028;28;20415;-75
2022/06/21 04:26:08;;;;;;;3.30;1.73;;;13.60;73.60;;;;;;5056528;28;20060;-75
2022/06/21 04:28:40;;;;;;;4.43;2.10;;;13.60;73.80;;;;;;5057555;28;20056;-76
2022/06/21 04:31:15;;;;;;;3.30;1.73;;;13.70;73.50;;;;;;5052787;28;20057;-72
2022/06/21 04:33:47;;;;;;;3.60;1.65;;;13.80;72.90;;;;;;5043797;28;20503;-70
2022/06/21 04:36:19;;;;;;;2.97;1.50;;;13.90;72.80;;;;;;5048531;28;20131;-70
2022/06/21 04:39:02;;;;;;;4.60;1.45;;;14.00;72.30;;;;;;5045823;28;20041;-70
2022/06/21 04:41:37;;;;;;;3.65;1.52;;;14.00;72.20;;;;;;5049042;28;20812;-70
2022/06/21 04:44:10;;;;;;;4.07;1.80;;;14.00;72.40;;;;;;5044244;28;20045;-71
2022/06/21 04:46:42;;;;;;;6.07;1.70;;;14.10;72.40;;;;;;5044634;28;20080;-73
2022/06/21 04:49:15;;;;;;;3.47;1.58;;;14.10;72.80;;;;;;5047237;28;20432;-74
2022/06/21 04:51:47;;;;;;;3.53;2.00;;;14.20;72.90;;;;;;5044815;28;20053;-68
2022/06/21 04:54:25;;;;;;;5.07;1.67;;;14.20;72.90;;;;;;5045276;28;20425;-71
2022/06/21 04:57:00;;;;;;;3.83;1.90;;;14.20;72.70;;;;;;5044956;28;20080;-78
2022/06/21 04:59:32;;;;;;;3.28;1.65;;;14.20;72.80;;;;;;5043287;28;20047;-71
2022/06/21 05:02:02;;;;;;;4.68;2.05;;;14.20;72.60;;;;;;5042474;28;20060;-69
2022/06/21 05:04:33;;;;;;;4.03;1.65;;;14.20;72.10;;;;;;5046846;28;20119;-72
2022/06/21 05:07:04;;;;;;;2.80;1.70;;;14.20;72.10;;;;;;5049815;28;20393;-70
2022/06/21 05:09:34;;;;;;;2.90;1.60;;;14.20;72.20;;;;;;5047899;28;20044;-71
2022/06/21 05:12:04;;;;;;;5.82;1.98;;;14.20;72.30;;;;;;5046647;28;20067;-71
2022/06/21 05:14:36;;;;;;;5.50;1.60;;;14.10;72.30;;;;;;5046891;28;20056;-73
2022/06/21 05:17:08;;;;;;;4.45;1.80;;;14.10;72.50;;;;;;5045819;28;20068;-72
2022/06/21 05:19:39;;;;;;;4.40;2.00;;;14.10;72.70;;;;;;5046730;28;20054;-77
2022/06/21 05:22:17;;;;;;;3.63;1.70;;;14.10;72.80;;;;;;5047787;28;20037;-70
2022/06/21 05:24:45;;;;;;;2.60;1.55;;;14.10;72.90;;;;;;5048155;28;20049;-69
2022/06/21 05:27:17;;;;;;;3.25;1.58;;;14.10;72.90;;;;;;5048408;28;20143;-69
2022/06/21 05:29:48;;;;;;;4.10;1.80;;;14.10;72.90;;;;;;5046563;28;20065;-77
2022/06/21 05:32:21;;;;;;;3.80;1.70;;;14.20;73.00;;;;;;5047739;28;20056;-77
2022/06/21 05:34:51;;;;;;;3.35;1.60;;;14.20;73.00;;;;;;5044252;28;20230;-77
2022/06/21 05:37:29;;;;;;;2.42;1.42;;;14.10;73.10;;;;;;5047167;28;20052;-77
2022/06/21 05:39:58;;;;;;;4.40;1.80;;;14.20;73.10;;;;;;5048001;28;20131;-68
2022/06/21 05:42:28;;;;;;;2.97;1.70;;;14.20;73.30;;;;;;5047375;28;20072;-71
2022/06/21 05:45:01;;;;;;;3.33;1.40;;;14.30;73.40;;;;;;5048493;28;20049;-72
2022/06/21 05:47:35;;;;;;;5.25;2.00;;;14.30;73.60;;;;;;5046156;28;20057;-71
2022/06/21 05:50:06;;;;;;;3.17;1.70;;;14.30;73.80;;;;;;5045988;28;20133;-72
2022/06/21 05:52:36;;;;;;;4.07;2.15;;;14.40;73.60;;;;;;5032244;28;20044;-77
2022/06/21 05:55:07;;;;;;;;;;;14.40;73.80;;;;;;5048408;28;20049;-72
2022/06/21 05:58:05;;;;;;;4.43;1.75;;;14.40;74.00;;;;;;5016654;28;19927;-71
2022/06/21 06:00:41;;;;;;;2.70;1.58;;;14.40;74.10;;;;;;5035732;28;20159;-71
2022/06/21 06:03:14;;;;;;;4.00;1.83;;;14.40;73.80;;;;;;5046655;28;20076;-72
2022/06/21 06:05:42;;;;;;;2.70;1.58;;;14.50;73.90;;;;;;5044609;28;20056;-70
2022/06/21 06:08:13;;;;;;;3.70;1.60;;;14.50;73.90;;;;;;5059929;28;20055;-72
2022/06/21 06:10:44;;;;;;;3.83;1.67;;;14.60;74.00;;;;;;5045075;28;20049;-70
2022/06/21 06:13:15;;;;;;;3.80;2.00;;;14.60;74.10;;;;;;5044595;28;20484;-71
2022/06/21 06:16:11;;;;;;;3.95;1.48;;;14.70;74.10;;;;;;5053680;28;20048;-71
2022/06/21 06:19:15;;;;;;;4.68;1.52;;;14.70;74.20;;;;;;5065285;28;20080;-72
2022/06/21 06:22:20;;;;;;;3.95;1.88;;;14.90;74.10;;;;;;5048136;28;20052;-74
2022/06/21 06:24:53;;;;;;;3.00;1.58;;;15.00;74.10;;;;;;5055200;28;20528;-70
2022/06/21 06:27:29;;;;;;;3.33;1.90;;;15.10;74.10;;;;;;5057534;28;20111;-75
2022/06/21 06:33:35;;;;;;;3.40;1.90;;;15.20;74.30;;;;;;4964940;28;20041;-72
2022/06/21 06:39:54;;;;;;;4.10;2.35;;;15.40;74.20;;;;;;4946556;28;20061;-71
2022/06/21 06:42:27;;;;;;;5.60;2.20;;;15.60;74.10;;;;;;4996624;28;20045;-69
2022/06/21 06:44:59;;;;;;;5.28;2.03;;;15.70;73.90;;;;;;5039369;28;20049;-78
2022/06/21 06:47:35;;;;;;;4.30;2.42;;;15.90;73.60;;;;;;5052720;28;20591;-71
2022/06/21 06:50:12;;;;;;;4.75;2.45;;;16.10;73.30;;;;;;5051703;28;20037;-69
2022/06/21 06:52:49;;;;;;;5.38;2.60;;;16.20;72.90;;;;;;5062929;28;20045;-77
2022/06/21 06:55:53;;;;;;;4.43;2.85;;;16.40;72.70;;;;;;5058427;28;20044;-70
2022/06/21 07:01:57;;;;;;;5.50;1.92;;;16.80;72.50;;;;;;5016435;28;20045;-71
2022/06/21 07:05:16;;;;;;;5.72;1.98;;;17.00;71.70;;;;;;5058132;28;20055;-70
2022/06/21 07:08:03;;;;;;;7.22;2.85;;;17.20;71.40;;;;;;5029524;28;20043;-78
2022/06/21 07:10:31;;;;;;;4.20;2.22;;;17.40;71.10;;;;;;5028492;28;20080;-76
2022/06/21 07:12:58;;;;;;;4.20;2.03;;;17.60;70.90;;;;;;5031722;28;20136;-72
2022/06/21 07:15:39;;;;;;;5.20;1.90;;;17.70;70.70;;;;;;5028206;28;20063;-71
2022/06/21 07:18:13;;;;;;;7.22;2.10;;;17.90;70.50;;;;;;5029871;28;20041;-71
2022/06/21 07:20:43;;;;;;;4.18;1.50;;;18.10;70.00;;;;;;5029365;28;20057;-76
2022/06/21 07:23:12;;;;;;;;;;;18.20;69.80;;;;;;5030893;28;20627;-71
2022/06/21 07:25:44;;;;;;;5.78;1.98;;;18.40;69.30;;;;;;5021549;28;19960;-67
2022/06/21 07:28:16;;;;;;;3.17;1.70;;;18.60;68.70;;;;;;5059113;28;20045;-70
2022/06/21 07:30:47;;;;;;;5.20;1.83;;;18.70;68.20;;;;;;5035387;28;20131;-70
2022/06/21 07:33:20;;;;;;;2.88;1.60;;;18.90;68.40;;;;;;5036488;28;20060;-73
2022/06/21 07:35:51;;;;;;;2.88;1.75;;;19.00;68.20;;;;;;5032750;28;20440;-70
2022/06/21 07:38:25;;;;;;;2.40;1.33;;;19.20;68.10;;;;;;5031052;28;20056;-76
2022/06/21 07:40:57;;;;;;;3.70;1.73;;;19.30;67.60;;;;;;5032376;28;20497;-68
2022/06/21 07:43:29;;;;;;;4.22;1.45;;;19.50;67.70;;;;;;5034526;28;20040;-72
2022/06/21 07:45:59;;;;;;;1.85;0.90;;;19.70;66.60;;;;;;5033685;28;20053;-72
2022/06/21 07:48:30;;;;;;;3.72;1.15;;;19.90;66.50;;;;;;5026207;28;20050;-70
2022/06/21 07:51:05;;;;;;;2.63;1.23;;;20.00;65.30;;;;;;5030292;28;20139;-73
2022/06/21 07:53:36;;;;;;;5.15;1.15;;;20.20;65.50;;;;;;5028738;28;20045;-71
2022/06/21 07:56:10;;;;;;;1.80;1.02;;;20.40;64.70;;;;;;5028308;28;20075;-71
2022/06/21 07:58:42;;;;;;;3.05;1.20;;;20.60;64.10;;;;;;5027177;28;20049;-70
2022/06/21 08:06:58;;;;;;;3.30;0.80;;;21.00;59.20;;;;;;5031275;28;20537;-71
2022/06/21 08:09:34;;;;;;;5.35;1.35;;;21.30;58.30;;;;;;5039762;28;20055;-76
2022/06/21 08:12:02;;;;;;;4.25;1.20;;;21.30;57.60;;;;;;5031039;28;20065;-73
2022/06/21 08:14:31;;;;;;;3.80;0.93;;;21.40;56.90;;;;;;5040691;28;20044;-72
2022/06/21 08:17:03;;;;;;;4.95;1.00;;;21.40;56.10;;;;;;5048858;28;20047;-71
2022/06/21 08:19:37;;;;;;;1.75;0.77;;;21.50;55.70;;;;;;5055993;28;20045;-67
2022/06/21 08:22:08;;;;;;;2.65;0.90;;;21.60;58.10;;;;;;5059287;28;20493;-73
2022/06/21 08:24:42;;;;;;;1.23;0.75;;;21.70;57.70;;;;;;5048197;28;20060;-75
2022/06/21 08:27:21;;;;;;;4.43;1.40;;;21.90;54.60;;;;;;5042926;28;20128;-71
2022/06/21 08:29:54;;;;;;;3.10;1.10;;;22.10;53.70;;;;;;5048131;28;20418;-74
2022/06/21 08:32:27;;;;;;;2.70;1.35;;;22.20;52.40;;;;;;5049555;28;20110;-69
2022/06/21 08:34:59;;;;;;;2.60;1.08;;;22.20;52.70;;;;;;5046911;28;20136;-72
2022/06/21 08:37:33;;;;;;;3.17;0.70;;;22.30;52.90;;;;;;5046975;28;20130;-71
2022/06/21 08:40:09;;;;;;;3.00;0.88;;;22.40;52.40;;;;;;5050206;28;20052;-71
2022/06/21 08:43:14;;;;;;;2.90;0.90;;;22.50;51.80;;;;;;5050039;28;20052;-77
2022/06/21 08:46:14;;;;;;;2.67;0.85;;;22.60;51.60;;;;;;5045314;28;20060;-76
2022/06/21 08:48:58;;;;;;;3.38;0.73;;;22.70;51.30;;;;;;5046179;28;20059;-72
2022/06/21 08:51:51;;;;;;;2.65;0.73;;;22.80;51.20;;;;;;5043723;28;20493;-73
2022/06/21 08:54:30;;;;;;;3.60;1.30;;;22.90;50.30;;;;;;5050274;28;20052;-72
2022/06/21 08:57:05;;;;;;;;;;;23.00;50.90;;;;;;5046596;28;20405;-76
2022/06/21 08:59:44;;;;;;;2.95;1.10;;;23.00;50.40;;;;;;5034727;28;19921;-76
2022/06/21 09:02:20;;;;;;;3.17;0.98;;;23.10;50.60;;;;;;5043533;28;20095;-68
2022/06/21 09:04:59;;;;;;;2.75;1.00;;;23.20;50.30;;;;;;5046631;28;20055;-72
2022/06/21 09:07:41;;;;;;;2.88;0.90;;;23.30;49.10;;;;;;5047494;28;20061;-75
2022/06/21 09:10:28;;;;;;;2.13;0.70;;;23.50;49.90;;;;;;5053580;28;20045;-73
2022/06/21 09:13:10;;;;;;;1.83;0.70;;;23.50;49.60;;;;;;5052768;28;20067;-67
2022/06/21 09:15:49;;;;;;;3.70;0.80;;;23.60;49.00;;;;;;5046012;28;20057;-72
2022/06/21 09:18:29;;;;;;;2.03;0.73;;;23.60;48.40;;;;;;5050306;28;20479;-69
2022/06/21 09:21:06;;;;;;;2.95;0.93;;;23.80;47.70;;;;;;5043863;28;22183;-69
2022/06/21 09:23:57;;;;;;;2.05;1.00;;;23.80;48.10;;;;;;5046494;28;20053;-71
2022/06/21 09:26:33;;;;;;;2.78;1.25;;;23.90;47.50;;;;;;5044964;28;20497;-73
2022/06/21 09:29:10;;;;;;;4.75;1.42;;;24.00;46.50;;;;;;5059396;28;20072;-71
2022/06/21 09:31:49;;;;;;;3.72;0.80;;;24.00;46.00;;;;;;5044122;28;20044;-71
2022/06/21 09:34:21;;;;;;;;;;;24.10;46.30;;;;;;5068863;28;20408;-77
2022/06/21 09:36:56;;;;;;;1.88;0.80;;;24.10;46.10;;;;;;5049856;28;20037;-72
2022/06/21 09:39:31;;;;;;;1.88;0.90;;;24.10;47.20;;;;;;5056780;28;20045;-69
2022/06/21 09:42:10;;;;;;;2.30;1.00;;;24.20;46.60;;;;;;5054457;28;20059;-69
2022/06/21 09:44:46;;;;;;;4.63;1.20;;;24.20;46.90;;;;;;5053205;28;20052;-70
2022/06/21 09:47:23;;;;;;;3.67;0.82;;;24.30;47.00;;;;;;5047586;28;20126;-70
2022/06/21 09:49:56;;;;;;;2.65;1.05;;;24.40;46.10;;;;;;5046424;28;20094;-72
2022/06/21 09:52:36;;;;;;;2.97;1.20;;;24.50;45.90;;;;;;5046354;28;20049;-71
2022/06/21 09:55:08;;;;;;;;;;;24.60;45.90;;;;;;5044382;28;20044;-78
2022/06/21 09:57:43;;;;;;;4.18;1.20;;;24.60;45.60;;;;;;5043787;28;19928;-68
2022/06/21 10:00:16;;;;;;;2.65;1.08;;;24.70;44.70;;;;;;5037396;28;20053;-70
2022/06/21 10:02:58;;;;;;;3.42;1.45;;;24.70;44.60;;;;;;5049467;28;20443;-68
2022/06/21 10:05:31;;;;;;;3.20;1.15;;;24.70;45.10;;;;;;5047163;28;20140;-77
2022/06/21 10:08:15;;;;;;;3.78;1.30;;;24.80;45.10;;;;;;5050727;28;20056;-77
2022/06/21 10:10:55;;;;;;;4.88;1.67;;;24.90;45.00;;;;;;5052686;28;20084;-70
2022/06/21 10:13:42;;;;;;;4.15;1.60;;;24.90;45.00;;;;;;5053608;28;20048;-71
2022/06/21 10:16:34;;;;;;;2.47;1.20;;;24.90;44.70;;;;;;5050975;28;20408;-78
2022/06/21 10:19:19;;;;;;;3.00;1.17;;;24.90;44.70;;;;;;5055877;28;20118;-73
2022/06/21 10:22:15;;;;;;;4.55;1.10;;;25.00;44.60;;;;;;5063059;28;20159;-72
2022/06/21 10:24:58;;;;;;;2.17;0.90;;;25.10;44.30;;;;;;5048426;28;20045;-77
2022/06/21 10:27:41;;;;;;;3.60;1.10;;;25.10;44.00;;;;;;5049591;28;20049;-73
2022/06/21 10:30:25;;;;;;;3.22;0.90;;;25.10;43.50;;;;;;5051534;28;20236;-76
2022/06/21 10:33:06;;;;;;;3.22;1.00;;;25.10;43.40;;;;;;5050137;28;20048;-70
2022/06/21 10:35:51;;;;;;;3.83;1.48;;;25.10;43.20;;;;;;5047912;28;20120;-77
2022/06/21 10:38:32;;;;;;;3.35;1.50;;;25.20;43.20;;;;;;5045090;28;20056;-70
2022/06/21 10:41:12;;;;;;;5.25;1.10;;;25.20;43.10;;;;;;5047925;28;20048;-68
2022/06/21 10:44:07;;;;;;;4.00;1.48;;;25.20;43.20;;;;;;5033330;28;20794;-73
2022/06/21 10:46:38;;;;;;;2.80;1.23;;;25.30;43.50;;;;;;5047129;28;20508;-77
2022/06/21 10:49:40;;;;;;;2.90;1.30;;;25.30;43.40;;;;;;5047127;28;20045;-71
2022/06/21 10:52:41;;;;;;;4.13;1.55;;;25.30;43.60;;;;;;5049342;28;20478;-71
2022/06/21 10:55:35;;;;;;;8.00;3.35;;;25.30;43.80;;;;;;5040351;28;20056;-71
2022/06/21 10:58:14;;;;;;;5.10;1.70;;;25.40;44.30;;;;;;5057041;28;20055;-76
2022/06/21 11:03:53;;;;;;;4.47;1.35;;;25.40;43.70;;;;;;5054881;28;20399;-69
2022/06/21 11:06:37;;;;;;;3.33;1.38;;;25.40;43.30;;;;;;5052686;28;20144;-69
2022/06/21 11:09:13;;;;;;;2.75;1.15;;;25.40;43.30;;;;;;5038552;28;20142;-71
2022/06/21 11:11:44;;;;;;;4.13;1.52;;;25.40;43.20;;;;;;5031390;28;20045;-77
2022/06/21 11:14:22;;;;;;;3.85;1.75;;;25.40;43.00;;;;;;5028070;28;20436;-70
2022/06/21 11:16:58;;;;;;;5.28;1.95;;;25.50;42.70;;;;;;5024669;28;20108;-76
2022/06/21 11:19:30;;;;;;;6.85;3.17;;;25.50;42.50;;;;;;5024844;28;20136;-73
2022/06/21 11:22:07;;;;;;;8.23;1.75;;;25.60;42.50;;;;;;5029334;28;20049;-74
2022/06/21 11:24:49;;;;;;;4.13;1.80;;;25.60;42.40;;;;;;5026817;28;20055;-68
2022/06/21 11:27:23;;;;;;;3.47;1.52;;;25.60;42.00;;;;;;5026614;28;20052;-68
2022/06/21 11:29:57;;;;;;;3.75;1.77;;;25.70;42.20;;;;;;5042586;28;20048;-71
2022/06/21 11:32:33;;;;;;;3.97;1.77;;;25.70;41.70;;;;;;5027233;28;20080;-78
2022/06/21 11:35:11;;;;;;;3.25;1.38;;;25.70;41.50;;;;;;5033755;28;20143;-75
2022/06/21 11:37:51;;;;;;;3.08;1.02;;;25.70;41.90;;;;;;5020807;28;20053;-77
2022/06/21 11:40:42;;;;;;;3.85;1.15;;;25.70;41.70;;;;;;5027727;28;20520;-73
2022/06/21 11:43:25;;;;;;;4.32;1.38;;;25.70;41.40;;;;;;5036315;28;20045;-70
2022/06/21 11:45:57;;;;;;;3.40;0.90;;;25.70;41.30;;;;;;5048607;28;20045;-74
2022/06/21 11:48:46;;;;;;;2.83;1.10;;;25.70;41.20;;;;;;5052143;28;20560;-68
2022/06/21 11:51:23;;;;;;;;;;;25.70;41.10;;;;;;5048877;28;20050;-72
2022/06/21 11:53:59;;;;;;;4.18;1.48;;;25.80;41.10;;;;;;5051335;28;19924;-73
2022/06/21 11:56:39;;;;;;;6.22;1.05;;;25.80;41.00;;;;;;5044081;28;20045;-70
2022/06/21 11:59:13;;;;;;;1.83;0.80;;;25.80;40.90;;;;;;5050505;28;20067;-68
2022/06/21 12:01:50;;;;;;;3.25;0.98;;;25.80;40.60;;;;;;5048630;28;20044;-68
2022/06/21 12:04:30;;;;;;;2.40;1.27;;;25.80;40.90;;;;;;5047688;28;20052;-78
2022/06/21 12:07:04;;;;;;;2.05;0.93;;;25.90;39.90;;;;;;5050142;28;20098;-79
2022/06/21 12:09:38;;;;;;;2.17;0.88;;;25.90;40.10;;;;;;5047017;28;20167;-73
2022/06/21 12:12:41;;;;;;;2.83;0.90;;;25.90;40.40;;;;;;5046775;28;20047;-72
2022/06/21 12:15:34;;;;;;;16.00;1.75;;;25.90;39.90;;;;;;5047038;28;20045;-73
2022/06/21 12:18:05;;;;;;;2.55;0.90;;;25.90;39.40;;;;;;5048535;28;20045;-72
2022/06/21 12:20:46;;;;;;;3.38;1.38;;;26.00;39.30;;;;;;5056826;28;20040;-67
2022/06/21 12:23:19;;;;;;;4.68;1.05;;;26.00;40.00;;;;;;5060969;28;20049;-73
2022/06/21 12:25:47;;;;;;;1.27;0.70;;;25.90;40.50;;;;;;5057653;28;20156;-68
2022/06/21 12:28:18;;;;;;;2.33;0.75;;;25.90;40.70;;;;;;5059471;28;20488;-73
2022/06/21 12:30:45;;;;;;;1.75;0.80;;;26.00;40.80;;;;;;5060036;28;20048;-70
2022/06/21 12:33:15;;;;;;;3.42;0.75;;;25.90;40.80;;;;;;5061782;28;20055;-73
2022/06/21 12:35:51;;;;;;;1.98;0.85;;;26.00;40.70;;;;;;5059420;28;20103;-71
2022/06/21 12:38:23;;;;;;;3.22;1.10;;;26.00;40.40;;;;;;5059889;28;20056;-69
2022/06/21 12:40:59;;;;;;;1.67;0.60;;;26.00;40.40;;;;;;5059003;28;20041;-69
2022/06/21 12:43:42;;;;;;;2.53;1.00;;;26.00;40.00;;;;;;5058378;28;20048;-70
2022/06/21 12:46:17;;;;;;;3.38;0.65;;;26.00;40.10;;;;;;5057957;28;20036;-69
2022/06/21 12:49:07;;;;;;;2.03;0.80;;;26.00;40.20;;;;;;5057841;28;20135;-76
2022/06/21 12:51:41;;;;;;;2.03;0.70;;;26.00;40.30;;;;;;5057408;28;20037;-70
2022/06/21 12:54:34;;;;;;;3.88;1.10;;;26.10;40.20;;;;;;5056778;28;20068;-70
2022/06/21 12:57:21;;;;;;;1.08;0.60;;;26.10;40.20;;;;;;5047056;28;20051;-70
2022/06/21 13:00:04;;;;;;;3.10;0.95;;;26.10;40.20;;;;;;5058167;28;20144;-78
2022/06/21 13:02:47;;;;;;;1.90;0.70;;;26.00;40.60;;;;;;5051867;28;20115;-71
2022/06/21 13:05:33;;;;;;;4.53;0.90;;;26.00;40.50;;;;;;5051619;28;20048;-71
2022/06/21 13:08:32;;;;;;;3.90;0.95;;;26.00;41.00;;;;;;5030816;28;20044;-72
2022/06/21 13:11:05;;;;;;;;;;;26.00;40.60;;;;;;5042449;28;20040;-71
2022/06/21 13:13:42;;;;;;;1.75;0.85;;;26.00;40.40;;;;;;5052767;28;20023;-72
2022/06/21 13:16:24;;;;;;;1.40;0.50;;;25.90;40.30;;;;;;5047368;28;20148;-68
2022/06/21 13:19:06;;;;;;;8.25;0.70;;;26.00;40.40;;;;;;5047031;28;20132;-71
2022/06/21 13:21:43;;;;;;;2.00;0.50;;;26.00;40.60;;;;;;5050892;28;20159;-74
2022/06/21 13:24:25;;;;;;;4.00;1.15;;;25.90;40.50;;;;;;5058607;28;20045;-72
2022/06/21 13:27:07;;;;;;;1.27;0.60;;;25.90;40.60;;;;;;5048543;28;20389;-69
2022/06/21 13:29:56;;;;;;;3.38;0.90;;;25.90;40.30;;;;;;5047207;28;20072;-69
2022/06/21 13:32:26;;;;;;;;;;;25.90;40.20;;;;;;5045979;28;20041;-66
2022/06/21 13:34:56;;;;;;;1.70;0.77;;;25.90;40.30;;;;;;5054954;28;19935;-71
2022/06/21 13:37:28;;;;;;;2.60;0.80;;;25.90;40.20;;;;;;5056485;28;20067;-68
2022/06/21 13:40:03;;;;;;;2.35;0.73;;;25.90;40.00;;;;;;5058883;28;20072;-70
2022/06/21 13:42:41;;;;;;;3.55;0.82;;;25.90;40.20;;;;;;5057266;28;20095;-68
2022/06/21 13:45:32;;;;;;;3.33;0.93;;;25.90;40.20;;;;;;5048253;28;20134;-65
2022/06/21 13:48:07;;;;;;;1.80;0.80;;;25.90;40.00;;;;;;5037027;28;20056;-69
2022/06/21 13:50:40;;;;;;;2.65;0.88;;;25.90;39.80;;;;;;5043040;28;20217;-67
2022/06/21 13:53:13;;;;;;;3.97;1.40;;;26.00;39.70;;;;;;5043618;28;20053;-65
2022/06/21 13:55:47;;;;;;;1.88;0.80;;;26.00;39.50;;;;;;5043911;28;20420;-73